sensor_id;sensor_type;location;lat;lon;timestamp;temperature;humidity
6752;DHT22;3413;47.680;9.166;2023-03-03T00:01:20;7.80;91.90
6752;DHT22;3413;47.680;9.166;2023-03-03T00:06:22;7.80;91.90
6752;DHT22;3413;47.680;9.166;2023-03-03T00:11:25;7.80;91.90
6752;DHT22;3413;47.680;9.166;2023-03-03T00:16:39;7.70;91.80
6752;DHT22;3413;47.680;9.166;2023-03-03T00:21:44;7.70;91.90
6752;DHT22;3413;47.680;9.166;2023-03-03T00:26:54;7.70;91.90
6752;DHT22;3413;47.680;9.166;2023-03-03T00:32:23;7.80;92.00
6752;DHT22;3413;47.680;9.166;2023-03-03T00:37:33;7.80;91.90
6752;DHT22;3413;47.680;9.166;2023-03-03T00:42:36;7.80;91.90
6752;DHT22;3413;47.680;9.166;2023-03-03T00:47:42;7.70;91.80
6752;DHT22;3413;47.680;9.166;2023-03-03T00:53:16;7.60;91.90
6752;DHT22;3413;47.680;9.166;2023-03-03T00:58:19;7.60;91.90
6752;DHT22;3413;47.680;9.166;2023-03-03T01:03:25;7.60;91.90
6752;DHT22;3413;47.680;9.166;2023-03-03T01:08:28;7.60;91.90
6752;DHT22;3413;47.680;9.166;2023-03-03T01:13:32;7.60;91.90
6752;DHT22;3413;47.680;9.166;2023-03-03T01:18:38;7.70;91.90
6752;DHT22;3413;47.680;9.166;2023-03-03T01:23:42;7.70;91.90
6752;DHT22;3413;47.680;9.166;2023-03-03T01:28:44;7.60;91.90
6752;DHT22;3413;47.680;9.166;2023-03-03T01:33:46;7.60;91.90
6752;DHT22;3413;47.680;9.166;2023-03-03T01:38:48;7.50;91.80
6752;DHT22;3413;47.680;9.166;2023-03-03T01:43:49;7.40;91.80
6752;DHT22;3413;47.680;9.166;2023-03-03T01:48:56;7.40;91.80
6752;DHT22;3413;47.680;9.166;2023-03-03T01:54:08;7.30;91.80
6752;DHT22;3413;47.680;9.166;2023-03-03T01:59:17;7.30;91.80
6752;DHT22;3413;47.680;9.166;2023-03-03T02:04:20;7.30;91.80
6752;DHT22;3413;47.680;9.166;2023-03-03T02:14:39;7.40;91.90
6752;DHT22;3413;47.680;9.166;2023-03-03T02:20:05;7.30;91.80
6752;DHT22;3413;47.680;9.166;2023-03-03T02:25:12;7.30;91.80
6752;DHT22;3413;47.680;9.166;2023-03-03T02:30:20;7.30;91.90
6752;DHT22;3413;47.680;9.166;2023-03-03T02:35:31;7.30;91.90
6752;DHT22;3413;47.680;9.166;2023-03-03T02:40:36;7.30;91.80
6752;DHT22;3413;47.680;9.166;2023-03-03T02:45:42;7.30;91.90
6752;DHT22;3413;47.680;9.166;2023-03-03T02:50:45;7.40;92.00
6752;DHT22;3413;47.680;9.166;2023-03-03T02:55:47;7.40;92.00
6752;DHT22;3413;47.680;9.166;2023-03-03T03:00:49;7.40;92.00
6752;DHT22;3413;47.680;9.166;2023-03-03T03:05:55;7.50;92.00
6752;DHT22;3413;47.680;9.166;2023-03-03T03:10:59;7.50;92.00
6752;DHT22;3413;47.680;9.166;2023-03-03T03:16:03;7.50;92.00
6752;DHT22;3413;47.680;9.166;2023-03-03T03:21:10;7.50;92.00
6752;DHT22;3413;47.680;9.166;2023-03-03T03:26:13;7.40;92.00
6752;DHT22;3413;47.680;9.166;2023-03-03T03:31:17;7.40;92.00
6752;DHT22;3413;47.680;9.166;2023-03-03T03:36:21;7.50;92.00
6752;DHT22;3413;47.680;9.166;2023-03-03T03:41:24;7.50;92.10
6752;DHT22;3413;47.680;9.166;2023-03-03T03:46:26;7.50;92.10
6752;DHT22;3413;47.680;9.166;2023-03-03T03:51:29;7.50;92.10
6752;DHT22;3413;47.680;9.166;2023-03-03T03:56:32;7.50;92.10
6752;DHT22;3413;47.680;9.166;2023-03-03T04:01:36;7.50;92.10
6752;DHT22;3413;47.680;9.166;2023-03-03T04:06:38;7.50;92.10
6752;DHT22;3413;47.680;9.166;2023-03-03T04:11:40;7.50;92.10
6752;DHT22;3413;47.680;9.166;2023-03-03T04:16:44;7.50;92.10
6752;DHT22;3413;47.680;9.166;2023-03-03T04:21:46;7.40;92.10
6752;DHT22;3413;47.680;9.166;2023-03-03T04:26:48;7.40;92.20
6752;DHT22;3413;47.680;9.166;2023-03-03T04:31:50;7.40;92.10
6752;DHT22;3413;47.680;9.166;2023-03-03T04:36:53;7.30;92.10
6752;DHT22;3413;47.680;9.166;2023-03-03T04:41:55;7.30;92.10
6752;DHT22;3413;47.680;9.166;2023-03-03T04:46:57;7.20;92.10
6752;DHT22;3413;47.680;9.166;2023-03-03T04:51:59;7.20;92.20
6752;DHT22;3413;47.680;9.166;2023-03-03T04:57:01;7.30;92.20
6752;DHT22;3413;47.680;9.166;2023-03-03T05:02:04;7.30;92.20
6752;DHT22;3413;47.680;9.166;2023-03-03T05:07:06;7.30;92.20
6752;DHT22;3413;47.680;9.166;2023-03-03T05:12:08;7.30;92.20
6752;DHT22;3413;47.680;9.166;2023-03-03T05:17:09;7.40;92.20
6752;DHT22;3413;47.680;9.166;2023-03-03T05:22:11;7.40;92.20
6752;DHT22;3413;47.680;9.166;2023-03-03T05:27:14;7.50;92.20
6752;DHT22;3413;47.680;9.166;2023-03-03T05:32:15;7.50;92.20
6752;DHT22;3413;47.680;9.166;2023-03-03T05:37:17;7.60;92.20
6752;DHT22;3413;47.680;9.166;2023-03-03T05:42:19;7.60;92.30
6752;DHT22;3413;47.680;9.166;2023-03-03T05:47:22;7.50;92.20
6752;DHT22;3413;47.680;9.166;2023-03-03T05:52:24;7.50;92.30
6752;DHT22;3413;47.680;9.166;2023-03-03T05:57:26;7.60;92.30
6752;DHT22;3413;47.680;9.166;2023-03-03T06:02:28;7.60;92.30
6752;DHT22;3413;47.680;9.166;2023-03-03T06:07:30;7.60;92.60
6752;DHT22;3413;47.680;9.166;2023-03-03T06:12:32;7.60;92.30
6752;DHT22;3413;47.680;9.166;2023-03-03T06:17:34;7.70;92.30
6752;DHT22;3413;47.680;9.166;2023-03-03T06:22:35;7.70;92.30
6752;DHT22;3413;47.680;9.166;2023-03-03T06:27:37;7.70;92.20
6752;DHT22;3413;47.680;9.166;2023-03-03T06:32:39;7.80;92.30
6752;DHT22;3413;47.680;9.166;2023-03-03T06:37:41;7.70;92.30
6752;DHT22;3413;47.680;9.166;2023-03-03T06:42:43;7.70;92.30
6752;DHT22;3413;47.680;9.166;2023-03-03T06:47:45;7.70;92.40
6752;DHT22;3413;47.680;9.166;2023-03-03T06:52:47;7.70;92.40
6752;DHT22;3413;47.680;9.166;2023-03-03T06:57:50;7.70;92.50
6752;DHT22;3413;47.680;9.166;2023-03-03T07:03:16;7.80;92.50
6752;DHT22;3413;47.680;9.166;2023-03-03T07:08:21;7.80;92.50
6752;DHT22;3413;47.680;9.166;2023-03-03T07:13:26;7.80;92.60
6752;DHT22;3413;47.680;9.166;2023-03-03T07:18:49;7.80;92.60
6752;DHT22;3413;47.680;9.166;2023-03-03T07:23:53;7.80;92.60
6752;DHT22;3413;47.680;9.166;2023-03-03T07:29:23;7.70;92.60
6752;DHT22;3413;47.680;9.166;2023-03-03T07:34:30;7.90;92.70
6752;DHT22;3413;47.680;9.166;2023-03-03T07:39:39;7.90;92.70
6752;DHT22;3413;47.680;9.166;2023-03-03T07:44:42;7.90;92.70
6752;DHT22;3413;47.680;9.166;2023-03-03T07:49:48;7.90;92.70
6752;DHT22;3413;47.680;9.166;2023-03-03T07:54:52;7.90;92.70
6752;DHT22;3413;47.680;9.166;2023-03-03T08:05:33;8.00;92.70
6752;DHT22;3413;47.680;9.166;2023-03-03T08:26:15;7.80;92.50
6752;DHT22;3413;47.680;9.166;2023-03-03T08:31:18;7.80;92.60
6752;DHT22;3413;47.680;9.166;2023-03-03T08:36:40;7.90;92.70
6752;DHT22;3413;47.680;9.166;2023-03-03T08:41:42;7.90;92.80
6752;DHT22;3413;47.680;9.166;2023-03-03T08:46:45;8.00;92.80
6752;DHT22;3413;47.680;9.166;2023-03-03T08:51:47;8.00;92.80
6752;DHT22;3413;47.680;9.166;2023-03-03T08:56:49;8.00;92.70
6752;DHT22;3413;47.680;9.166;2023-03-03T09:01:51;8.00;92.80
6752;DHT22;3413;47.680;9.166;2023-03-03T09:06:53;8.10;92.90
6752;DHT22;3413;47.680;9.166;2023-03-03T09:12:08;8.20;93.00
6752;DHT22;3413;47.680;9.166;2023-03-03T09:17:34;8.40;93.10
6752;DHT22;3413;47.680;9.166;2023-03-03T09:22:37;8.50;93.10
6752;DHT22;3413;47.680;9.166;2023-03-03T09:27:39;8.60;93.10
6752;DHT22;3413;47.680;9.166;2023-03-03T09:32:42;8.70;93.10
6752;DHT22;3413;47.680;9.166;2023-03-03T09:37:44;8.80;93.20
6752;DHT22;3413;47.680;9.166;2023-03-03T10:26:28;9.60;93.60
6752;DHT22;3413;47.680;9.166;2023-03-03T10:31:34;9.60;93.70
6752;DHT22;3413;47.680;9.166;2023-03-03T10:36:45;9.60;93.80
6752;DHT22;3413;47.680;9.166;2023-03-03T10:42:05;9.80;94.00
6752;DHT22;3413;47.680;9.166;2023-03-03T11:03:41;10.50;93.50
6752;DHT22;3413;47.680;9.166;2023-03-03T11:08:53;10.50;93.50
6752;DHT22;3413;47.680;9.166;2023-03-03T11:19:50;10.60;93.80
6752;DHT22;3413;47.680;9.166;2023-03-03T11:25:14;10.70;93.90
6752;DHT22;3413;47.680;9.166;2023-03-03T11:30:22;10.80;94.20
6752;DHT22;3413;47.680;9.166;2023-03-03T11:36:22;10.90;94.30
6752;DHT22;3413;47.680;9.166;2023-03-03T11:41:19;11.20;94.50
6752;DHT22;3413;47.680;9.166;2023-03-03T11:46:38;11.40;94.70
6752;DHT22;3413;47.680;9.166;2023-03-03T11:52:02;11.50;94.90
6752;DHT22;3413;47.680;9.166;2023-03-03T12:08:05;12.40;95.20
6752;DHT22;3413;47.680;9.166;2023-03-03T12:13:18;12.50;95.10
6752;DHT22;3413;47.680;9.166;2023-03-03T12:23:45;12.60;95.20
6752;DHT22;3413;47.680;9.166;2023-03-03T12:28:56;12.70;95.30
6752;DHT22;3413;47.680;9.166;2023-03-03T12:34:13;12.60;95.20
6752;DHT22;3413;47.680;9.166;2023-03-03T12:39:35;12.60;95.10
6752;DHT22;3413;47.680;9.166;2023-03-03T13:05:56;12.40;94.80
6752;DHT22;3413;47.680;9.166;2023-03-03T13:11:17;12.30;94.70
6752;DHT22;3413;47.680;9.166;2023-03-03T13:16:35;12.20;94.70
6752;DHT22;3413;47.680;9.166;2023-03-03T13:21:46;12.20;94.60
6752;DHT22;3413;47.680;9.166;2023-03-03T13:26:57;12.20;94.60
6752;DHT22;3413;47.680;9.166;2023-03-03T13:32:11;12.10;94.50
6752;DHT22;3413;47.680;9.166;2023-03-03T13:37:20;12.20;94.50
6752;DHT22;3413;47.680;9.166;2023-03-03T13:47:35;12.10;94.40
6752;DHT22;3413;47.680;9.166;2023-03-03T14:35:22;10.90;93.40
6752;DHT22;3413;47.680;9.166;2023-03-03T14:40:32;11.00;93.50
6752;DHT22;3413;47.680;9.166;2023-03-03T14:45:39;11.10;93.50
6752;DHT22;3413;47.680;9.166;2023-03-03T14:50:55;11.00;93.40
6752;DHT22;3413;47.680;9.166;2023-03-03T15:01:30;11.00;93.80
6752;DHT22;3413;47.680;9.166;2023-03-03T15:11:45;11.40;93.70
6752;DHT22;3413;47.680;9.166;2023-03-03T15:16:47;11.50;93.70
6752;DHT22;3413;47.680;9.166;2023-03-03T15:22:15;11.50;93.60
6752;DHT22;3413;47.680;9.166;2023-03-03T15:27:43;11.40;93.60
6752;DHT22;3413;47.680;9.166;2023-03-03T16:05:36;11.90;93.90
6752;DHT22;3413;47.680;9.166;2023-03-03T16:11:02;12.00;93.90
6752;DHT22;3413;47.680;9.166;2023-03-03T16:21:29;12.00;94.00
6752;DHT22;3413;47.680;9.166;2023-03-03T16:27:28;12.00;94.00
6752;DHT22;3413;47.680;9.166;2023-03-03T16:32:44;12.10;94.10
6752;DHT22;3413;47.680;9.166;2023-03-03T16:43:19;12.20;94.10
6752;DHT22;3413;47.680;9.166;2023-03-03T17:04:44;12.30;94.10
6752;DHT22;3413;47.680;9.166;2023-03-03T17:20:29;12.50;94.20
6752;DHT22;3413;47.680;9.166;2023-03-03T18:25:25;11.70;93.70
6752;DHT22;3413;47.680;9.166;2023-03-03T18:30:58;11.70;93.60
6752;DHT22;3413;47.680;9.166;2023-03-03T18:41:33;11.50;93.60
6752;DHT22;3413;47.680;9.166;2023-03-03T18:46:54;11.50;93.50
6752;DHT22;3413;47.680;9.166;2023-03-03T18:52:35;11.40;93.50
6752;DHT22;3413;47.680;9.166;2023-03-03T18:57:38;11.30;93.40
6752;DHT22;3413;47.680;9.166;2023-03-03T19:02:50;11.20;93.40
6752;DHT22;3413;47.680;9.166;2023-03-03T19:08:03;11.10;93.30
6752;DHT22;3413;47.680;9.166;2023-03-03T19:13:37;11.00;93.40
6752;DHT22;3413;47.680;9.166;2023-03-03T19:24:08;11.00;93.30
6752;DHT22;3413;47.680;9.166;2023-03-03T19:40:33;10.90;93.30
6752;DHT22;3413;47.680;9.166;2023-03-03T20:01:54;10.80;93.20
6752;DHT22;3413;47.680;9.166;2023-03-03T20:17:40;10.80;93.20
6752;DHT22;3413;47.680;9.166;2023-03-03T20:44:21;10.70;93.20
6752;DHT22;3413;47.680;9.166;2023-03-03T20:55:01;10.80;93.30
6752;DHT22;3413;47.680;9.166;2023-03-03T21:05:20;10.80;93.20
6752;DHT22;3413;47.680;9.166;2023-03-03T21:10:27;10.80;93.20
6752;DHT22;3413;47.680;9.166;2023-03-03T21:15:32;10.80;93.20
6752;DHT22;3413;47.680;9.166;2023-03-03T21:20:36;10.80;93.20
6752;DHT22;3413;47.680;9.166;2023-03-03T21:25:52;10.80;93.20
6752;DHT22;3413;47.680;9.166;2023-03-03T21:31:10;10.80;93.20
6752;DHT22;3413;47.680;9.166;2023-03-03T21:36:18;10.70;93.20
6752;DHT22;3413;47.680;9.166;2023-03-03T21:41:21;10.60;93.20
6752;DHT22;3413;47.680;9.166;2023-03-03T21:46:24;10.60;93.20
6752;DHT22;3413;47.680;9.166;2023-03-03T21:51:26;10.50;93.20
6752;DHT22;3413;47.680;9.166;2023-03-03T21:56:29;10.50;93.20
6752;DHT22;3413;47.680;9.166;2023-03-03T22:01:31;10.40;93.20
6752;DHT22;3413;47.680;9.166;2023-03-03T22:06:33;10.40;93.20
6752;DHT22;3413;47.680;9.166;2023-03-03T22:11:35;10.40;93.20
6752;DHT22;3413;47.680;9.166;2023-03-03T22:16:37;10.40;93.10
6752;DHT22;3413;47.680;9.166;2023-03-03T22:21:39;10.40;93.20
6752;DHT22;3413;47.680;9.166;2023-03-03T22:26:41;10.40;93.20
6752;DHT22;3413;47.680;9.166;2023-03-03T22:31:43;10.30;93.10
6752;DHT22;3413;47.680;9.166;2023-03-03T22:36:46;10.30;93.40
6752;DHT22;3413;47.680;9.166;2023-03-03T22:41:47;10.20;93.00
6752;DHT22;3413;47.680;9.166;2023-03-03T22:46:49;10.20;93.10
6752;DHT22;3413;47.680;9.166;2023-03-03T22:51:51;10.10;93.00
6752;DHT22;3413;47.680;9.166;2023-03-03T22:56:53;10.10;93.00
6752;DHT22;3413;47.680;9.166;2023-03-03T23:01:56;10.10;93.00
6752;DHT22;3413;47.680;9.166;2023-03-03T23:06:59;10.10;93.00
6752;DHT22;3413;47.680;9.166;2023-03-03T23:12:02;10.10;93.00
6752;DHT22;3413;47.680;9.166;2023-03-03T23:17:04;10.10;92.90
6752;DHT22;3413;47.680;9.166;2023-03-03T23:22:06;10.00;92.80
6752;DHT22;3413;47.680;9.166;2023-03-03T23:27:09;9.90;93.30
6752;DHT22;3413;47.680;9.166;2023-03-03T23:32:11;9.80;93.30
6752;DHT22;3413;47.680;9.166;2023-03-03T23:37:13;9.80;93.20
6752;DHT22;3413;47.680;9.166;2023-03-03T23:42:15;9.70;93.10
6752;DHT22;3413;47.680;9.166;2023-03-03T23:47:17;9.60;93.10
6752;DHT22;3413;47.680;9.166;2023-03-03T23:52:19;9.50;93.00
6752;DHT22;3413;47.680;9.166;2023-03-03T23:57:21;9.50;93.00
